createdAt,value
2018-12-06T00:01:05.103Z,0.70
2018-12-06T00:03:33.770Z,0.70
2018-12-06T00:06:02.279Z,0.70
2018-12-06T00:08:30.795Z,0.70
2018-12-06T00:10:59.267Z,0.70
2018-12-06T00:13:27.771Z,0.70
2018-12-06T00:15:56.259Z,0.80
2018-12-06T00:18:24.767Z,0.80
2018-12-06T00:20:53.291Z,0.80
2018-12-06T00:23:21.774Z,0.80
2018-12-06T00:25:50.263Z,0.80
2018-12-06T00:28:18.739Z,0.80
2018-12-06T00:30:47.226Z,0.80
2018-12-06T00:33:15.726Z,0.80
2018-12-06T00:35:44.218Z,0.80
2018-12-06T00:38:12.710Z,0.80
2018-12-06T00:40:41.195Z,0.80
2018-12-06T00:43:09.702Z,0.80
2018-12-06T00:45:38.198Z,0.80
2018-12-06T00:48:06.703Z,0.80
2018-12-06T00:50:35.170Z,0.80
2018-12-06T00:53:03.650Z,0.80
2018-12-06T00:55:32.182Z,0.80
2018-12-06T00:58:01.494Z,0.90
2018-12-06T01:00:30.085Z,0.90
2018-12-06T01:02:58.549Z,0.90
2018-12-06T01:05:27.022Z,0.90
2018-12-06T01:07:55.493Z,0.90
2018-12-06T01:10:23.973Z,0.90
2018-12-06T01:12:52.477Z,0.90
2018-12-06T01:15:20.957Z,0.90
2018-12-06T01:17:52.932Z,0.90
2018-12-06T01:20:21.433Z,0.90
2018-12-06T01:22:49.921Z,0.90
2018-12-06T01:25:19.416Z,0.90
2018-12-06T01:27:48.048Z,0.90
2018-12-06T01:30:16.898Z,0.90
2018-12-06T01:32:45.384Z,0.90
2018-12-06T01:35:13.891Z,0.90
2018-12-06T01:37:42.369Z,0.90
2018-12-06T01:40:10.972Z,0.90
2018-12-06T01:42:39.477Z,0.90
2018-12-06T01:45:09.772Z,0.90
2018-12-06T01:47:38.270Z,0.90
2018-12-06T01:50:07.145Z,0.90
2018-12-06T01:52:35.684Z,0.90
2018-12-06T01:55:04.455Z,0.90
2018-12-06T01:57:33.048Z,0.90
2018-12-06T02:00:01.528Z,0.90
2018-12-06T02:02:30.036Z,0.90
2018-12-06T02:04:58.540Z,0.90
2018-12-06T02:07:27.039Z,0.90
2018-12-06T02:09:55.559Z,1.00
2018-12-06T02:12:24.049Z,1.00
2018-12-06T02:14:52.587Z,1.00
2018-12-06T02:17:21.075Z,0.90
2018-12-06T02:19:49.543Z,1.00
2018-12-06T02:22:18.023Z,1.00
2018-12-06T02:24:46.550Z,1.00
2018-12-06T02:27:15.024Z,1.00
2018-12-06T02:29:48.959Z,1.00
2018-12-06T02:32:17.446Z,1.00
2018-12-06T02:34:45.923Z,1.00
2018-12-06T02:37:14.442Z,1.00
2018-12-06T02:39:42.984Z,1.00
2018-12-06T02:42:11.490Z,1.00
2018-12-06T02:44:40.116Z,1.00
2018-12-06T02:47:08.603Z,1.00
2018-12-06T02:49:37.122Z,1.10
2018-12-06T02:52:05.611Z,1.00
2018-12-06T02:54:34.122Z,1.10
2018-12-06T02:57:02.658Z,1.10
2018-12-06T02:59:31.190Z,1.10
2018-12-06T03:01:59.679Z,1.10
2018-12-06T03:04:28.170Z,1.10
2018-12-06T03:06:56.687Z,1.10
2018-12-06T03:09:25.170Z,1.00
2018-12-06T03:11:53.658Z,1.00
2018-12-06T03:14:22.135Z,1.10
2018-12-06T03:16:50.747Z,1.10
2018-12-06T03:19:19.207Z,1.10
2018-12-06T03:21:47.702Z,1.00
2018-12-06T03:24:16.175Z,1.00
2018-12-06T03:26:44.686Z,1.10
2018-12-06T03:29:13.169Z,1.10
2018-12-06T03:31:41.800Z,1.10
2018-12-06T03:34:10.563Z,1.10
2018-12-06T03:36:39.082Z,1.00
2018-12-06T03:39:08.127Z,1.10
2018-12-06T03:41:36.634Z,1.10
2018-12-06T03:44:05.249Z,1.00
2018-12-06T03:46:33.728Z,1.10
2018-12-06T03:49:02.224Z,1.00
2018-12-06T03:51:30.990Z,1.00
2018-12-06T03:53:59.461Z,1.10
2018-12-06T03:56:27.945Z,1.00
2018-12-06T03:58:56.430Z,1.00
2018-12-06T04:01:24.921Z,1.10
2018-12-06T04:03:53.401Z,1.10
2018-12-06T04:06:21.898Z,1.10
2018-12-06T04:08:50.361Z,1.10
2018-12-06T04:11:18.857Z,1.10
2018-12-06T04:13:47.363Z,1.10
2018-12-06T04:16:15.866Z,1.10
2018-12-06T04:18:44.367Z,1.10
2018-12-06T04:21:12.864Z,1.10
2018-12-06T04:23:41.352Z,1.10
2018-12-06T04:26:09.855Z,1.10
2018-12-06T04:28:38.322Z,1.10
2018-12-06T04:31:06.826Z,1.10
2018-12-06T04:33:35.318Z,1.10
2018-12-06T04:36:03.797Z,1.10
2018-12-06T04:38:32.274Z,1.10
2018-12-06T04:41:00.758Z,1.10
2018-12-06T04:43:29.312Z,1.10
2018-12-06T04:45:57.834Z,1.00
2018-12-06T04:48:26.303Z,1.10
2018-12-06T04:50:54.897Z,1.00
2018-12-06T04:53:23.431Z,1.00
2018-12-06T04:55:51.925Z,1.00
2018-12-06T04:58:20.448Z,1.00
2018-12-06T05:00:48.938Z,1.00
2018-12-06T05:03:17.427Z,1.00
2018-12-06T05:05:45.936Z,1.00
2018-12-06T05:08:14.463Z,1.00
2018-12-06T05:10:42.957Z,1.00
2018-12-06T05:13:11.475Z,1.00
2018-12-06T05:15:39.972Z,1.00
2018-12-06T05:18:08.459Z,1.00
2018-12-06T05:20:36.984Z,1.00
2018-12-06T05:23:05.495Z,1.00
2018-12-06T05:25:34.527Z,1.00
2018-12-06T05:28:03.030Z,1.00
2018-12-06T05:30:31.513Z,1.00
2018-12-06T05:33:00.023Z,0.90
2018-12-06T05:35:28.508Z,0.90
2018-12-06T05:37:57.023Z,0.90
2018-12-06T05:40:25.518Z,0.90
2018-12-06T05:42:54.032Z,0.90
2018-12-06T05:45:22.634Z,0.90
2018-12-06T05:47:51.191Z,0.90
2018-12-06T05:50:19.742Z,0.90
2018-12-06T05:52:48.218Z,0.90
2018-12-06T05:55:16.714Z,0.90
2018-12-06T05:57:45.207Z,0.80
2018-12-06T06:00:13.682Z,0.80
2018-12-06T06:02:42.170Z,0.80
2018-12-06T06:05:10.762Z,0.90
2018-12-06T06:07:39.285Z,0.90
2018-12-06T06:10:07.898Z,0.90
2018-12-06T06:12:36.393Z,0.90
2018-12-06T06:15:05.341Z,0.90
2018-12-06T06:17:33.857Z,0.90
2018-12-06T06:20:02.465Z,0.90
2018-12-06T06:22:30.949Z,0.90
2018-12-06T06:24:59.413Z,0.90
2018-12-06T06:27:27.914Z,0.90
2018-12-06T06:29:56.478Z,0.90
2018-12-06T06:32:24.979Z,1.00
2018-12-06T06:34:53.545Z,0.90
2018-12-06T06:37:22.040Z,1.00
2018-12-06T06:39:50.549Z,1.00
2018-12-06T06:42:19.067Z,1.00
2018-12-06T06:44:47.562Z,1.00
2018-12-06T06:47:16.061Z,1.00
2018-12-06T06:49:44.554Z,1.00
2018-12-06T06:52:13.065Z,1.00
2018-12-06T06:54:41.557Z,1.00
2018-12-06T06:57:10.048Z,1.00
2018-12-06T06:59:38.571Z,1.00
2018-12-06T07:02:07.068Z,1.00
2018-12-06T07:04:35.561Z,1.00
2018-12-06T07:07:04.089Z,1.00
2018-12-06T07:09:32.572Z,1.00
2018-12-06T07:12:01.072Z,1.10
2018-12-06T07:14:29.960Z,1.10
2018-12-06T07:16:58.437Z,1.10
2018-12-06T07:19:27.005Z,1.10
2018-12-06T07:21:55.492Z,1.10
2018-12-06T07:24:23.992Z,1.10
2018-12-06T07:26:52.503Z,1.10
2018-12-06T07:29:21.044Z,1.20
2018-12-06T07:31:49.552Z,1.20
2018-12-06T07:34:18.089Z,1.20
2018-12-06T07:36:46.636Z,1.20
2018-12-06T07:39:15.152Z,1.20
2018-12-06T07:41:43.684Z,1.20
2018-12-06T07:44:12.300Z,1.20
2018-12-06T07:46:40.824Z,1.20
2018-12-06T07:49:09.328Z,1.30
2018-12-06T07:51:37.868Z,1.30
2018-12-06T07:54:06.388Z,1.30
2018-12-06T07:56:34.956Z,1.30
2018-12-06T07:59:03.616Z,1.30
2018-12-06T08:01:32.122Z,1.40
2018-12-06T08:04:00.625Z,1.40
2018-12-06T08:06:29.132Z,1.40
2018-12-06T08:08:57.639Z,1.40
2018-12-06T08:11:26.155Z,1.40
2018-12-06T08:13:54.659Z,1.40
2018-12-06T08:16:23.155Z,1.40
2018-12-06T08:18:51.852Z,1.50
2018-12-06T08:21:20.347Z,1.50
2018-12-06T08:23:48.860Z,1.50
2018-12-06T08:26:17.394Z,1.50
2018-12-06T08:28:46.088Z,1.60
2018-12-06T08:31:14.691Z,1.60
2018-12-06T08:33:43.199Z,1.60
2018-12-06T08:36:11.667Z,1.60
2018-12-06T08:38:40.178Z,1.60
2018-12-06T08:41:08.787Z,1.70
2018-12-06T08:43:37.267Z,1.70
2018-12-06T08:46:05.771Z,1.70
2018-12-06T08:48:34.297Z,1.80
2018-12-06T08:51:02.811Z,1.70
2018-12-06T08:53:31.290Z,1.80
2018-12-06T08:55:59.903Z,1.80
2018-12-06T08:58:28.498Z,1.80
2018-12-06T09:00:57.078Z,1.80
2018-12-06T09:03:25.683Z,1.90
2018-12-06T09:05:54.264Z,1.90
2018-12-06T09:08:22.987Z,1.90
2018-12-06T09:10:51.985Z,1.90
2018-12-06T09:13:24.230Z,2.00
2018-12-06T09:15:52.822Z,2.00
2018-12-06T09:18:21.430Z,2.00
2018-12-06T09:20:50.026Z,2.00
2018-12-06T09:23:18.610Z,2.10
2018-12-06T09:25:47.194Z,2.30
2018-12-06T09:28:15.806Z,2.20
2018-12-06T09:30:44.410Z,2.30
2018-12-06T09:33:13.022Z,2.40
2018-12-06T09:35:41.630Z,2.40
2018-12-06T09:38:10.246Z,2.40
2018-12-06T09:40:39.070Z,2.40
2018-12-06T09:43:07.842Z,2.50
2018-12-06T09:45:36.602Z,2.50
2018-12-06T09:48:05.202Z,2.50
2018-12-06T09:50:33.978Z,2.40
2018-12-06T09:53:02.718Z,2.50
2018-12-06T09:55:31.391Z,2.50
2018-12-06T09:58:00.030Z,2.40
2018-12-06T10:00:28.655Z,2.40
2018-12-06T10:02:57.262Z,2.40
2018-12-06T10:05:25.894Z,2.40
2018-12-06T10:07:54.529Z,2.40
2018-12-06T10:10:23.270Z,2.40
2018-12-06T10:12:51.889Z,2.50
2018-12-06T10:15:20.602Z,2.40
2018-12-06T10:17:49.206Z,2.40
2018-12-06T10:20:17.826Z,2.40
2018-12-06T10:22:46.438Z,2.40
2018-12-06T10:25:15.762Z,2.40
2018-12-06T10:27:44.379Z,2.40
2018-12-06T10:30:13.009Z,2.40
2018-12-06T10:32:41.606Z,2.40
2018-12-06T10:35:10.269Z,2.50
2018-12-06T10:37:38.873Z,2.50
2018-12-06T10:40:07.554Z,2.50
2018-12-06T10:42:36.165Z,2.50
2018-12-06T10:45:05.925Z,2.50
2018-12-06T10:47:34.517Z,2.60
2018-12-06T10:50:03.469Z,2.60
2018-12-06T10:52:32.123Z,2.60
2018-12-06T10:55:00.734Z,2.60
2018-12-06T10:57:29.476Z,2.60
2018-12-06T10:59:59.059Z,2.60
2018-12-06T11:02:30.549Z,2.60
2018-12-06T11:04:59.146Z,2.60
2018-12-06T11:07:27.803Z,2.70
2018-12-06T11:09:56.577Z,2.70
2018-12-06T11:12:25.993Z,2.70
2018-12-06T11:14:54.598Z,2.70
2018-12-06T11:17:23.207Z,2.70
2018-12-06T11:19:51.797Z,2.70
2018-12-06T11:22:20.398Z,2.70
2018-12-06T11:24:48.998Z,2.70
2018-12-06T11:27:17.621Z,2.70
2018-12-06T11:29:46.200Z,2.70
2018-12-06T11:37:31.809Z,2.70
2018-12-06T11:40:00.500Z,2.80
2018-12-06T11:42:29.187Z,2.70
2018-12-06T11:44:57.853Z,2.70
2018-12-06T11:47:26.514Z,2.80
2018-12-06T11:50:45.867Z,2.80
2018-12-06T11:53:14.568Z,2.70
2018-12-06T11:55:43.223Z,2.80
2018-12-06T11:58:11.945Z,2.80
2018-12-06T12:07:50.211Z,2.80
2018-12-06T12:10:18.882Z,2.80
2018-12-06T12:12:47.559Z,2.80
2018-12-06T12:15:16.242Z,2.80
2018-12-06T12:17:49.830Z,2.80
2018-12-06T12:20:18.487Z,2.80
2018-12-06T12:22:47.143Z,2.80
2018-12-06T12:25:15.822Z,2.80
2018-12-06T12:27:44.484Z,2.80
2018-12-06T12:30:13.490Z,2.80
2018-12-06T12:32:42.174Z,2.80
2018-12-06T12:35:11.615Z,2.80
2018-12-06T12:37:40.490Z,2.80
2018-12-06T12:40:11.431Z,2.80
2018-12-06T12:42:40.110Z,2.80
2018-12-06T12:45:09.070Z,2.90
2018-12-06T12:47:37.705Z,2.80
2018-12-06T12:50:08.190Z,2.80
2018-12-06T12:52:36.870Z,2.90
2018-12-06T12:55:06.196Z,2.80
2018-12-06T12:57:34.962Z,2.90
2018-12-06T13:00:04.282Z,2.90
2018-12-06T13:02:32.938Z,2.90
2018-12-06T13:05:01.602Z,2.90
2018-12-06T13:07:30.289Z,2.90
2018-12-06T13:09:58.950Z,2.90
2018-12-06T13:12:27.814Z,2.90
2018-12-06T13:14:56.494Z,2.90
2018-12-06T13:17:25.161Z,2.90
2018-12-06T13:19:53.825Z,2.90
2018-12-06T13:22:22.654Z,2.90
2018-12-06T13:24:51.413Z,2.90
2018-12-06T13:27:20.089Z,2.90
2018-12-06T13:29:48.792Z,2.90
2018-12-06T13:32:17.605Z,2.90
2018-12-06T13:34:46.301Z,2.90
2018-12-06T13:37:14.956Z,2.90
2018-12-06T13:39:43.773Z,2.90
2018-12-06T13:42:12.453Z,2.90
2018-12-06T13:44:41.137Z,2.90
2018-12-06T13:47:09.793Z,2.90
2018-12-06T13:49:38.425Z,2.90
2018-12-06T13:52:07.145Z,2.90
2018-12-06T13:54:35.820Z,2.90
2018-12-06T13:57:04.642Z,2.90
2018-12-06T13:59:33.313Z,2.90
2018-12-06T14:02:01.964Z,2.90
2018-12-06T14:04:30.639Z,2.90
2018-12-06T14:06:59.344Z,2.90
2018-12-06T14:09:28.014Z,2.90
2018-12-06T14:11:57.280Z,2.90
2018-12-06T14:14:25.936Z,2.90
2018-12-06T14:16:54.616Z,2.90
2018-12-06T14:19:23.288Z,2.90
2018-12-06T14:21:51.952Z,2.90
2018-12-06T14:24:20.640Z,2.90
2018-12-06T14:26:49.327Z,2.90
2018-12-06T14:29:17.971Z,2.90
2018-12-06T14:31:46.732Z,2.90
2018-12-06T14:34:15.386Z,2.90
2018-12-06T14:36:44.085Z,2.80
2018-12-06T14:39:12.773Z,2.90
2018-12-06T14:41:41.437Z,2.80
2018-12-06T14:44:10.090Z,2.80
2018-12-06T14:46:38.727Z,2.80
2018-12-06T14:49:07.429Z,2.80
2018-12-06T14:51:36.113Z,2.80
2018-12-06T14:54:04.785Z,2.80
2018-12-06T14:56:33.485Z,2.80
2018-12-06T14:59:02.181Z,2.80
2018-12-06T15:01:30.833Z,2.80
2018-12-06T15:03:59.533Z,2.80
2018-12-06T15:06:28.221Z,2.80
2018-12-06T15:08:56.869Z,2.80
2018-12-06T15:11:25.597Z,2.80
2018-12-06T15:13:54.251Z,2.80
2018-12-06T15:16:26.733Z,2.80
2018-12-06T15:18:55.328Z,2.70
2018-12-06T15:21:23.918Z,2.70
2018-12-06T15:23:52.462Z,2.70
2018-12-06T15:26:21.013Z,2.70
2018-12-06T15:28:49.534Z,2.70
2018-12-06T15:31:18.073Z,2.80
2018-12-06T15:33:46.630Z,2.80
2018-12-06T15:36:15.229Z,2.80
2018-12-06T15:38:43.761Z,2.80
2018-12-06T15:41:13.081Z,2.80
2018-12-06T15:43:41.637Z,2.80
2018-12-06T15:46:10.248Z,2.80
2018-12-06T15:48:38.813Z,2.80
2018-12-06T15:51:07.369Z,2.80
2018-12-06T15:53:35.949Z,2.80
2018-12-06T15:56:04.661Z,2.80
2018-12-06T15:58:33.332Z,2.80
2018-12-06T16:01:01.863Z,2.90
2018-12-06T16:03:30.405Z,2.90
2018-12-06T16:05:58.988Z,2.90
2018-12-06T16:08:27.561Z,2.90
2018-12-06T16:10:56.145Z,2.90
2018-12-06T16:13:24.709Z,2.90
2018-12-06T16:15:53.385Z,2.90
2018-12-06T16:18:22.004Z,2.90
2018-12-06T16:20:50.564Z,2.90
2018-12-06T16:23:57.597Z,2.90
2018-12-06T16:26:26.272Z,2.90
2018-12-06T16:28:54.824Z,2.90
2018-12-06T16:31:23.389Z,2.90
2018-12-06T16:33:52.056Z,2.90
2018-12-06T16:36:20.668Z,3.00
2018-12-06T16:38:49.233Z,2.90
2018-12-06T16:41:17.807Z,2.90
2018-12-06T16:43:46.352Z,3.00
2018-12-06T16:46:14.927Z,3.00
2018-12-06T16:48:44.148Z,2.90
2018-12-06T16:51:13.091Z,2.90
2018-12-06T16:53:42.291Z,2.90
2018-12-06T16:56:11.223Z,2.90
2018-12-06T16:58:40.221Z,2.90
2018-12-06T17:01:08.839Z,2.90
2018-12-06T17:03:37.771Z,2.90
2018-12-06T17:06:06.777Z,3.00
2018-12-06T17:08:35.761Z,2.90
2018-12-06T17:11:04.876Z,3.00
2018-12-06T17:13:33.483Z,2.90
2018-12-06T17:16:02.557Z,2.90
2018-12-06T17:18:31.199Z,3.00
2018-12-06T17:21:00.231Z,3.00
2018-12-06T17:23:29.560Z,2.90
2018-12-06T17:25:58.535Z,3.00
2018-12-06T17:28:27.271Z,3.00
2018-12-06T17:30:56.211Z,3.00
2018-12-06T17:33:25.206Z,2.90
2018-12-06T17:35:54.190Z,3.00
2018-12-06T17:38:23.183Z,3.00
2018-12-06T17:40:52.196Z,3.00
2018-12-06T17:43:21.143Z,3.00
2018-12-06T17:45:50.067Z,3.00
2018-12-06T17:48:19.002Z,3.00
2018-12-06T17:50:47.611Z,3.00
2018-12-06T17:53:16.175Z,2.90
2018-12-06T17:55:55.188Z,2.90
2018-12-06T17:58:24.138Z,3.00
2018-12-06T18:00:53.038Z,3.00
2018-12-06T18:03:21.682Z,3.00
2018-12-06T18:05:50.351Z,3.00
2018-12-06T18:08:18.874Z,3.00
2018-12-06T18:10:47.566Z,3.00
2018-12-06T18:13:16.154Z,3.00
2018-12-06T18:15:45.171Z,3.00
2018-12-06T18:18:14.346Z,3.00
2018-12-06T18:20:43.018Z,3.00
2018-12-06T18:23:11.723Z,3.00
2018-12-06T18:25:40.251Z,3.00
2018-12-06T18:28:08.826Z,3.00
2018-12-06T18:30:37.390Z,3.00
2018-12-06T18:33:05.930Z,3.00
2018-12-06T18:35:34.459Z,3.00
2018-12-06T18:38:03.002Z,3.00
2018-12-06T18:40:31.633Z,3.00
2018-12-06T18:43:00.181Z,3.00
2018-12-06T18:45:28.710Z,2.90
2018-12-06T18:47:57.221Z,2.90
2018-12-06T18:50:25.833Z,3.00
2018-12-06T18:52:54.499Z,3.00
2018-12-06T18:55:23.057Z,2.90
2018-12-06T18:57:51.617Z,3.00
2018-12-06T19:00:20.189Z,3.00
2018-12-06T19:02:48.738Z,2.90
2018-12-06T19:05:17.329Z,2.90
2018-12-06T19:07:45.874Z,2.90
2018-12-06T19:10:14.557Z,2.90
2018-12-06T19:12:43.815Z,3.00
2018-12-06T19:15:12.369Z,3.00
2018-12-06T19:17:40.933Z,2.90
2018-12-06T19:20:09.664Z,2.90
2018-12-06T19:22:38.365Z,2.90
2018-12-06T19:25:07.209Z,2.90
2018-12-06T19:27:35.866Z,2.90
2018-12-06T19:30:05.453Z,2.90
2018-12-06T19:32:33.997Z,2.90
2018-12-06T19:35:02.809Z,2.90
2018-12-06T19:37:31.386Z,2.90
2018-12-06T19:39:59.937Z,2.90
2018-12-06T19:42:28.518Z,2.90
2018-12-06T19:44:57.037Z,2.90
2018-12-06T19:47:25.576Z,2.90
2018-12-06T19:49:54.253Z,2.90
2018-12-06T19:52:22.913Z,2.90
2018-12-06T19:54:51.472Z,2.90
2018-12-06T19:57:20.037Z,2.90
2018-12-06T19:59:48.578Z,2.90
2018-12-06T20:02:17.157Z,2.90
2018-12-06T20:04:45.729Z,2.90
2018-12-06T20:07:14.292Z,2.90
2018-12-06T20:09:42.845Z,2.80
2018-12-06T20:12:12.242Z,2.90
2018-12-06T20:14:40.901Z,2.90
2018-12-06T20:17:09.438Z,2.90
2018-12-06T20:19:37.953Z,2.90
2018-12-06T20:22:08.177Z,2.90
2018-12-06T20:24:36.968Z,2.90
2018-12-06T20:27:05.989Z,2.90
2018-12-06T20:29:34.585Z,2.90
2018-12-06T20:32:03.144Z,2.90
2018-12-06T20:34:31.704Z,2.90
2018-12-06T20:37:00.240Z,2.90
2018-12-06T20:39:28.996Z,2.90
2018-12-06T20:41:57.532Z,2.90
2018-12-06T20:44:26.172Z,2.90
2018-12-06T20:46:54.732Z,2.90
2018-12-06T20:49:23.311Z,2.90
2018-12-06T20:51:51.890Z,2.90
2018-12-06T20:54:20.459Z,2.90
2018-12-06T20:56:49.012Z,2.90
2018-12-06T20:59:17.587Z,3.00
2018-12-06T21:01:46.135Z,2.90
2018-12-06T21:04:14.660Z,2.90
2018-12-06T21:06:43.213Z,2.90
2018-12-06T21:09:11.743Z,2.90
2018-12-06T21:11:40.429Z,2.90
2018-12-06T21:14:09.524Z,2.90
2018-12-06T21:16:38.100Z,2.90
2018-12-06T21:19:06.639Z,2.90
2018-12-06T21:21:35.196Z,3.00
2018-12-06T21:24:03.856Z,3.00
2018-12-06T21:26:32.396Z,2.90
2018-12-06T21:29:00.967Z,2.90
2018-12-06T21:31:29.515Z,2.90
2018-12-06T21:33:58.035Z,3.00
2018-12-06T21:36:26.564Z,3.00
2018-12-06T21:38:55.104Z,3.00
2018-12-06T21:41:23.655Z,3.00
2018-12-06T21:43:52.183Z,3.00
2018-12-06T21:46:20.743Z,3.00
2018-12-06T21:48:49.312Z,3.00
2018-12-06T21:51:17.847Z,3.00
2018-12-06T21:53:46.423Z,3.10
2018-12-06T21:56:15.100Z,3.00
2018-12-06T21:58:43.679Z,3.10
2018-12-06T22:01:12.328Z,3.10
2018-12-06T22:03:40.892Z,3.00
2018-12-06T22:06:09.444Z,3.00
2018-12-06T22:08:38.020Z,3.00
2018-12-06T22:11:06.564Z,3.00
2018-12-06T22:13:35.114Z,3.10
2018-12-06T22:16:03.784Z,3.00
2018-12-06T22:18:32.335Z,3.00
2018-12-06T22:21:01.004Z,3.00
2018-12-06T22:23:29.572Z,3.00
2018-12-06T22:25:58.201Z,3.00
2018-12-06T22:28:33.806Z,3.00
2018-12-06T22:30:57.807Z,3.00
2018-12-06T22:33:26.576Z,3.00
2018-12-06T22:35:55.194Z,3.00
2018-12-06T22:38:23.779Z,3.00
2018-12-06T22:40:52.370Z,3.00
2018-12-06T22:43:20.935Z,3.00
2018-12-06T22:45:56.607Z,3.00
2018-12-06T22:48:25.195Z,3.00
2018-12-06T22:50:53.947Z,3.00
2018-12-06T22:53:22.595Z,3.00
2018-12-06T22:55:51.139Z,3.00
2018-12-06T22:58:19.703Z,3.00
2018-12-06T23:00:57.394Z,2.90
2018-12-06T23:03:26.878Z,2.90
2018-12-06T23:05:55.554Z,3.00
2018-12-06T23:08:24.176Z,2.90
2018-12-06T23:10:53.083Z,3.00
2018-12-06T23:13:21.634Z,2.90
2018-12-06T23:15:50.190Z,3.00
2018-12-06T23:18:18.859Z,2.90
2018-12-06T23:20:47.434Z,2.90
2018-12-06T23:23:15.994Z,3.00
2018-12-06T23:25:44.566Z,3.00
2018-12-06T23:28:13.611Z,3.00
2018-12-06T23:30:42.158Z,3.00
2018-12-06T23:33:10.710Z,3.00
2018-12-06T23:35:39.278Z,3.00
2018-12-06T23:38:07.865Z,3.00
2018-12-06T23:40:36.518Z,3.00
2018-12-06T23:43:05.065Z,3.00
2018-12-06T23:45:33.814Z,3.00
2018-12-06T23:48:02.397Z,3.00
2018-12-06T23:50:30.949Z,3.10
2018-12-06T23:52:59.497Z,3.10
2018-12-06T23:55:28.983Z,3.10
2018-12-06T23:57:57.536Z,3.10
